createdAt,value
2019-04-27T00:00:46.159Z,0.00
2019-04-27T00:01:48.403Z,0.00
2019-04-27T00:02:46.139Z,0.00
2019-04-27T00:03:46.112Z,0.00
2019-04-27T00:04:48.636Z,0.00
2019-04-27T00:05:47.100Z,0.00
2019-04-27T00:06:46.547Z,0.00
2019-04-27T00:07:46.073Z,0.00
2019-04-27T00:08:46.046Z,0.00
2019-04-27T00:09:50.313Z,0.00
2019-04-27T00:10:47.043Z,0.00
2019-04-27T00:11:46.075Z,0.00
2019-04-27T00:12:46.048Z,0.00
2019-04-27T00:13:46.002Z,0.00
2019-04-27T00:14:48.316Z,0.00
2019-04-27T00:15:47.022Z,0.00
2019-04-27T00:16:50.494Z,0.00
2019-04-27T00:17:49.280Z,0.00
2019-04-27T00:18:49.873Z,0.00
2019-04-27T00:19:46.914Z,0.00
2019-04-27T00:20:45.900Z,0.00
2019-04-27T00:21:45.896Z,0.00
2019-04-27T00:22:45.906Z,0.00
2019-04-27T00:23:45.883Z,0.00
2019-04-27T00:24:45.870Z,0.00
2019-04-27T00:25:45.861Z,0.00
2019-04-27T00:26:45.868Z,0.00
2019-04-27T00:27:45.851Z,0.00
2019-04-27T00:28:45.822Z,0.00
2019-04-27T00:29:45.805Z,0.00
2019-04-27T00:30:45.807Z,0.00
2019-04-27T00:31:45.805Z,0.00
2019-04-27T00:32:45.803Z,0.00
2019-04-27T00:33:45.763Z,0.00
2019-04-27T00:34:45.763Z,0.00
2019-04-27T00:35:45.764Z,0.00
2019-04-27T00:36:45.740Z,0.00
2019-04-27T00:37:45.751Z,0.00
2019-04-27T00:38:45.712Z,0.00
2019-04-27T00:39:45.702Z,0.00
2019-04-27T00:40:45.743Z,0.00
2019-04-27T00:41:45.685Z,0.00
2019-04-27T00:42:45.700Z,0.00
2019-04-27T00:43:45.685Z,0.00
2019-04-27T00:44:54.159Z,0.00
2019-04-27T00:45:45.666Z,0.00
2019-04-27T00:46:45.637Z,0.00
2019-04-27T00:47:56.534Z,0.00
2019-04-27T00:48:46.599Z,0.00
2019-04-27T00:49:45.583Z,0.00
2019-04-27T00:50:45.578Z,0.00
2019-04-27T00:52:46.773Z,0.00
2019-04-27T00:53:45.546Z,0.00
2019-04-27T00:54:45.531Z,0.00
2019-04-27T00:55:45.528Z,0.00
2019-04-27T00:56:45.506Z,0.00
2019-04-27T00:57:45.508Z,0.00
2019-04-27T00:58:45.544Z,0.00
2019-04-27T00:59:45.497Z,0.00
2019-04-27T01:00:45.468Z,0.00
2019-04-27T01:01:45.499Z,0.00
2019-04-27T01:02:45.446Z,0.00
2019-04-27T01:03:45.453Z,0.00
2019-04-27T01:04:45.432Z,0.00
2019-04-27T01:05:45.465Z,0.00
2019-04-27T01:06:45.427Z,0.00
2019-04-27T01:07:45.389Z,0.00
2019-04-27T01:08:45.413Z,0.00
2019-04-27T01:09:45.403Z,0.00
2019-04-27T01:10:45.367Z,0.00
2019-04-27T01:11:45.363Z,0.00
2019-04-27T01:12:45.344Z,0.00
2019-04-27T01:13:45.345Z,0.00
2019-04-27T01:14:45.322Z,0.00
2019-04-27T01:15:45.302Z,0.00
2019-04-27T01:16:45.299Z,0.00
2019-04-27T01:17:45.355Z,0.00
2019-04-27T01:18:45.305Z,0.00
2019-04-27T01:19:45.260Z,0.00
2019-04-27T01:20:45.263Z,0.00
2019-04-27T01:21:54.006Z,0.00
2019-04-27T01:22:45.240Z,0.00
2019-04-27T01:23:45.214Z,0.00
2019-04-27T01:24:45.222Z,0.00
2019-04-27T01:25:45.198Z,0.00
2019-04-27T01:26:45.194Z,0.00
2019-04-27T01:27:45.174Z,0.00
2019-04-27T01:28:45.177Z,0.00
2019-04-27T01:29:45.184Z,0.00
2019-04-27T01:30:45.239Z,0.00
2019-04-27T01:31:45.139Z,0.00
2019-04-27T01:32:45.137Z,0.00
2019-04-27T01:33:45.111Z,0.00
2019-04-27T01:34:45.126Z,0.00
2019-04-27T01:35:45.106Z,0.00
2019-04-27T01:36:45.078Z,0.00
2019-04-27T01:37:45.076Z,0.00
2019-04-27T01:38:45.055Z,0.00
2019-04-27T01:39:45.093Z,0.00
2019-04-27T01:40:45.029Z,0.00
2019-04-27T01:41:45.031Z,0.00
2019-04-27T01:42:45.010Z,0.00
2019-04-27T01:43:45.007Z,0.00
2019-04-27T01:44:44.989Z,0.00
2019-04-27T01:45:44.993Z,0.00
2019-04-27T01:46:44.965Z,0.00
2019-04-27T01:47:44.952Z,0.00
2019-04-27T01:48:44.958Z,0.00
2019-04-27T01:49:44.946Z,0.00
2019-04-27T01:50:44.938Z,0.00
2019-04-27T01:51:44.910Z,0.00
2019-04-27T01:52:44.899Z,0.00
2019-04-27T01:53:44.890Z,0.00
2019-04-27T01:54:44.904Z,0.00
2019-04-27T01:55:44.898Z,0.00
2019-04-27T01:56:44.862Z,0.00
2019-04-27T01:57:44.848Z,0.00
2019-04-27T01:58:44.845Z,0.00
2019-04-27T01:59:44.822Z,0.00
2019-04-27T02:00:44.842Z,0.00
2019-04-27T02:01:44.806Z,0.00
2019-04-27T02:02:44.804Z,0.00
2019-04-27T02:03:44.781Z,0.00
2019-04-27T02:04:44.780Z,0.00
2019-04-27T02:05:44.835Z,0.00
2019-04-27T02:06:44.759Z,0.00
2019-04-27T02:07:44.745Z,0.00
2019-04-27T02:08:44.750Z,0.00
2019-04-27T02:09:44.715Z,0.00
2019-04-27T02:10:44.730Z,0.00
2019-04-27T02:11:44.700Z,0.00
2019-04-27T02:12:44.703Z,0.00
2019-04-27T02:13:44.681Z,0.00
2019-04-27T02:14:44.657Z,0.00
2019-04-27T02:15:44.651Z,0.00
2019-04-27T02:16:44.653Z,0.00
2019-04-27T02:17:44.633Z,0.00
2019-04-27T02:18:44.637Z,0.00
2019-04-27T02:19:44.621Z,0.00
2019-04-27T02:20:44.688Z,0.00
2019-04-27T02:21:44.610Z,0.00
2019-04-27T02:22:44.574Z,0.00
2019-04-27T02:23:44.567Z,0.00
2019-04-27T02:24:44.565Z,0.00
2019-04-27T02:25:44.551Z,0.00
2019-04-27T02:26:44.551Z,0.00
2019-04-27T02:27:44.549Z,0.00
2019-04-27T02:28:44.511Z,0.00
2019-04-27T02:29:44.517Z,0.00
2019-04-27T02:30:44.496Z,0.00
2019-04-27T02:31:44.523Z,0.00
2019-04-27T02:32:44.472Z,0.00
2019-04-27T02:33:44.451Z,0.00
2019-04-27T02:34:44.456Z,0.00
2019-04-27T02:35:44.430Z,0.00
2019-04-27T02:36:44.457Z,0.00
2019-04-27T02:37:44.435Z,0.00
2019-04-27T02:38:52.573Z,0.00
2019-04-27T02:39:44.387Z,0.00
2019-04-27T02:40:44.385Z,0.00
2019-04-27T02:41:53.570Z,0.00
2019-04-27T02:42:44.374Z,0.00
2019-04-27T02:43:44.418Z,0.00
2019-04-27T02:44:44.333Z,0.00
2019-04-27T02:45:44.332Z,0.00
2019-04-27T02:46:44.316Z,0.00
2019-04-27T02:47:44.343Z,0.00
2019-04-27T02:48:55.534Z,0.00
2019-04-27T02:49:45.278Z,0.00
2019-04-27T02:50:44.276Z,0.00
2019-04-27T02:51:44.259Z,0.00
2019-04-27T02:52:44.446Z,0.00
2019-04-27T02:53:44.246Z,0.00
2019-04-27T02:54:44.224Z,0.00
2019-04-27T02:55:44.217Z,0.00
2019-04-27T02:56:44.204Z,0.00
2019-04-27T02:57:44.210Z,0.00
2019-04-27T02:58:44.285Z,0.00
2019-04-27T02:59:44.196Z,0.00
2019-04-27T03:00:44.170Z,0.00
2019-04-27T03:01:46.820Z,0.00
2019-04-27T03:02:44.181Z,0.00
2019-04-27T03:03:44.140Z,0.00
2019-04-27T03:04:44.117Z,0.00
2019-04-27T03:05:44.113Z,0.00
2019-04-27T03:06:44.095Z,0.00
2019-04-27T03:07:44.087Z,0.00
2019-04-27T03:08:44.102Z,0.00
2019-04-27T03:09:44.094Z,0.00
2019-04-27T03:10:44.056Z,0.00
2019-04-27T03:11:44.041Z,0.00
2019-04-27T03:12:44.028Z,0.00
2019-04-27T03:13:44.040Z,0.00
2019-04-27T03:14:44.021Z,0.00
2019-04-27T03:15:44.015Z,0.00
2019-04-27T03:16:43.994Z,0.00
2019-04-27T03:17:44.001Z,0.00
2019-04-27T03:18:43.987Z,0.00
2019-04-27T03:19:43.955Z,0.00
2019-04-27T03:20:43.951Z,0.00
2019-04-27T03:21:43.967Z,0.00
2019-04-27T03:22:43.942Z,0.00
2019-04-27T03:23:43.927Z,0.00
2019-04-27T03:24:43.908Z,0.00
2019-04-27T03:25:43.891Z,0.00
2019-04-27T03:26:43.905Z,0.00
2019-04-27T03:27:43.891Z,0.00
2019-04-27T03:28:43.895Z,0.00
2019-04-27T03:29:43.847Z,0.00
2019-04-27T03:30:43.976Z,0.00
2019-04-27T03:31:47.479Z,0.00
2019-04-27T03:32:44.848Z,0.00
2019-04-27T03:33:43.834Z,0.00
2019-04-27T03:34:43.845Z,0.00
2019-04-27T03:35:44.074Z,0.00
2019-04-27T03:36:43.778Z,0.00
2019-04-27T03:37:43.757Z,0.00
2019-04-27T03:38:43.764Z,0.00
2019-04-27T03:39:43.776Z,0.00
2019-04-27T03:40:43.755Z,0.00
2019-04-27T03:41:43.716Z,0.00
2019-04-27T03:42:43.706Z,0.00
2019-04-27T03:43:43.702Z,0.00
2019-04-27T03:44:43.709Z,0.00
2019-04-27T03:45:43.720Z,0.00
2019-04-27T03:46:43.663Z,0.00
2019-04-27T03:47:43.650Z,0.00
2019-04-27T03:48:43.647Z,0.00
2019-04-27T03:49:43.657Z,5.62
2019-04-27T03:50:43.635Z,5.62
2019-04-27T03:51:43.604Z,5.62
2019-04-27T03:52:43.594Z,5.62
2019-04-27T03:53:43.591Z,5.62
2019-04-27T03:54:43.606Z,5.62
2019-04-27T03:55:43.576Z,5.62
2019-04-27T03:56:43.574Z,5.62
2019-04-27T03:57:43.542Z,11.25
2019-04-27T03:58:43.530Z,11.25
2019-04-27T03:59:43.525Z,11.25
2019-04-27T04:00:43.538Z,11.25
2019-04-27T04:01:43.504Z,11.25
2019-04-27T04:02:43.489Z,11.25
2019-04-27T04:03:43.474Z,16.88
2019-04-27T04:04:43.464Z,16.88
2019-04-27T04:05:43.482Z,16.88
2019-04-27T04:06:43.453Z,16.88
2019-04-27T04:07:43.450Z,16.88
2019-04-27T04:08:43.430Z,16.88
2019-04-27T04:09:43.417Z,22.50
2019-04-27T04:10:43.431Z,22.50
2019-04-27T04:11:43.400Z,22.50
2019-04-27T04:12:43.397Z,22.50
2019-04-27T04:13:43.398Z,28.12
2019-04-27T04:14:43.362Z,22.50
2019-04-27T04:15:43.375Z,22.50
2019-04-27T04:16:43.340Z,22.50
2019-04-27T04:17:43.325Z,22.50
2019-04-27T04:18:43.328Z,28.12
2019-04-27T04:19:53.988Z,28.12
2019-04-27T04:20:44.332Z,33.75
2019-04-27T04:21:43.288Z,33.75
2019-04-27T04:22:43.278Z,33.75
2019-04-27T04:23:43.261Z,39.38
2019-04-27T04:24:43.260Z,39.38
2019-04-27T04:25:43.236Z,39.38
2019-04-27T04:26:43.284Z,39.38
2019-04-27T04:27:43.217Z,39.38
2019-04-27T04:28:44.101Z,39.38
2019-04-27T04:29:43.214Z,45.00
2019-04-27T04:30:43.195Z,45.00
2019-04-27T04:31:43.207Z,50.62
2019-04-27T04:32:43.176Z,50.62
2019-04-27T04:33:43.152Z,56.25
2019-04-27T04:34:43.137Z,56.25
2019-04-27T04:35:43.140Z,61.88
2019-04-27T04:36:43.144Z,61.88
2019-04-27T04:37:43.104Z,67.50
2019-04-27T04:38:43.099Z,67.50
2019-04-27T04:39:43.099Z,73.12
2019-04-27T04:40:43.071Z,73.12
2019-04-27T04:41:43.573Z,73.12
2019-04-27T04:42:43.078Z,73.12
2019-04-27T04:43:43.045Z,73.12
2019-04-27T04:44:43.032Z,73.12
2019-04-27T04:45:43.030Z,73.12
2019-04-27T04:46:43.019Z,78.75
2019-04-27T04:47:43.008Z,78.75
2019-04-27T04:48:42.988Z,73.12
2019-04-27T04:49:42.977Z,78.75
2019-04-27T04:50:42.964Z,78.75
2019-04-27T04:51:42.979Z,73.12
2019-04-27T04:52:42.957Z,73.12
2019-04-27T04:53:42.948Z,67.50
2019-04-27T04:54:42.914Z,67.50
2019-04-27T04:55:42.915Z,61.88
2019-04-27T04:56:51.212Z,61.88
2019-04-27T04:57:42.918Z,67.50
2019-04-27T04:58:42.893Z,67.50
2019-04-27T04:59:43.873Z,78.75
2019-04-27T05:00:42.908Z,84.38
2019-04-27T05:01:42.842Z,90.00
2019-04-27T05:02:42.851Z,101.25
2019-04-27T05:03:42.822Z,106.88
2019-04-27T05:04:42.820Z,95.62
2019-04-27T05:05:42.814Z,101.25
2019-04-27T05:06:42.787Z,95.62
2019-04-27T05:07:43.162Z,90.00
2019-04-27T05:08:42.762Z,90.00
2019-04-27T05:09:42.764Z,90.00
2019-04-27T05:10:42.757Z,90.00
2019-04-27T05:11:42.733Z,90.00
2019-04-27T05:12:42.728Z,95.62
2019-04-27T05:13:42.744Z,101.25
2019-04-27T05:14:42.700Z,101.25
2019-04-27T05:15:42.703Z,101.25
2019-04-27T05:16:42.679Z,101.25
2019-04-27T05:17:42.667Z,101.25
2019-04-27T05:18:42.676Z,101.25
2019-04-27T05:19:42.648Z,101.25
2019-04-27T05:20:42.640Z,106.88
2019-04-27T05:21:42.636Z,112.50
2019-04-27T05:22:42.611Z,123.75
2019-04-27T05:23:42.624Z,140.62
2019-04-27T05:24:42.593Z,157.50
2019-04-27T05:25:42.604Z,174.38
2019-04-27T05:26:42.592Z,174.38
2019-04-27T05:27:42.574Z,180.00
2019-04-27T05:28:42.577Z,168.75
2019-04-27T05:29:42.538Z,146.25
2019-04-27T05:30:42.526Z,129.38
2019-04-27T05:31:42.518Z,118.12
2019-04-27T05:32:42.508Z,112.50
2019-04-27T05:33:42.529Z,112.50
2019-04-27T05:34:42.480Z,106.88
2019-04-27T05:35:42.468Z,101.25
2019-04-27T05:36:48.503Z,101.25
2019-04-27T05:37:44.469Z,101.25
2019-04-27T05:38:45.988Z,95.62
2019-04-27T05:39:42.452Z,95.62
2019-04-27T05:40:42.414Z,95.62
2019-04-27T05:41:42.411Z,101.25
2019-04-27T05:42:42.408Z,106.88
2019-04-27T05:43:42.426Z,112.50
2019-04-27T05:44:45.594Z,118.12
2019-04-27T05:45:42.359Z,123.75
2019-04-27T05:46:42.352Z,129.38
2019-04-27T05:47:43.274Z,123.75
2019-04-27T05:48:42.362Z,123.75
2019-04-27T05:49:44.422Z,118.12
2019-04-27T05:50:45.580Z,112.50
2019-04-27T05:51:42.317Z,112.50
2019-04-27T05:52:42.284Z,123.75
2019-04-27T05:53:42.306Z,129.38
2019-04-27T05:54:42.262Z,146.25
2019-04-27T05:55:42.259Z,157.50
2019-04-27T05:56:42.235Z,168.75
2019-04-27T05:57:42.225Z,168.75
2019-04-27T05:58:42.233Z,168.75
2019-04-27T05:59:42.395Z,168.75
2019-04-27T06:00:42.196Z,168.75
2019-04-27T06:01:42.197Z,168.75
2019-04-27T06:02:42.175Z,174.38
2019-04-27T06:03:42.161Z,174.38
2019-04-27T06:04:42.169Z,180.00
2019-04-27T06:05:42.145Z,185.62
2019-04-27T06:06:42.133Z,191.25
2019-04-27T06:07:42.136Z,202.50
2019-04-27T06:08:42.111Z,213.75
2019-04-27T06:09:42.144Z,225.00
2019-04-27T06:10:42.084Z,236.25
2019-04-27T06:11:42.075Z,236.25
2019-04-27T06:12:42.078Z,236.25
2019-04-27T06:13:42.099Z,236.25
2019-04-27T06:14:42.083Z,236.25
2019-04-27T06:15:42.039Z,236.25
2019-04-27T06:16:42.031Z,258.75
2019-04-27T06:17:42.010Z,270.00
2019-04-27T06:18:42.015Z,258.75
2019-04-27T06:19:43.871Z,247.50
2019-04-27T06:20:51.231Z,258.75
2019-04-27T06:21:42.989Z,247.50
2019-04-27T06:22:41.960Z,241.88
2019-04-27T06:23:41.956Z,241.88
2019-04-27T06:24:41.954Z,258.75
2019-04-27T06:25:41.953Z,264.38
2019-04-27T06:26:41.912Z,264.38
2019-04-27T06:27:41.899Z,298.12
2019-04-27T06:28:41.897Z,292.50
2019-04-27T06:29:41.883Z,292.50
2019-04-27T06:30:41.897Z,343.12
2019-04-27T06:31:41.857Z,348.75
2019-04-27T06:32:41.847Z,348.75
2019-04-27T06:33:41.843Z,360.00
2019-04-27T06:34:41.852Z,365.62
2019-04-27T06:35:41.821Z,354.38
2019-04-27T06:36:41.808Z,348.75
2019-04-27T06:37:41.799Z,320.62
2019-04-27T06:38:41.781Z,331.88
2019-04-27T06:39:41.817Z,298.12
2019-04-27T06:40:41.760Z,303.75
2019-04-27T06:41:41.783Z,298.12
2019-04-27T06:42:41.737Z,315.00
2019-04-27T06:43:41.729Z,303.75
2019-04-27T06:44:41.779Z,292.50
2019-04-27T06:45:41.701Z,264.38
2019-04-27T06:46:41.705Z,247.50
2019-04-27T06:47:41.715Z,253.12
2019-04-27T06:48:41.678Z,258.75
2019-04-27T06:49:41.709Z,236.25
2019-04-27T06:50:41.654Z,219.38
2019-04-27T06:51:41.639Z,213.75
2019-04-27T06:52:41.651Z,208.12
2019-04-27T06:53:41.641Z,213.75
2019-04-27T06:54:41.628Z,236.25
2019-04-27T06:55:41.596Z,258.75
2019-04-27T06:56:41.584Z,292.50
2019-04-27T06:57:41.609Z,315.00
2019-04-27T06:58:41.579Z,331.88
2019-04-27T06:59:41.601Z,343.12
2019-04-27T07:00:41.582Z,354.38
2019-04-27T07:01:41.559Z,360.00
2019-04-27T07:02:41.603Z,365.62
2019-04-27T07:03:41.523Z,365.62
2019-04-27T07:04:41.529Z,376.88
2019-04-27T07:05:41.517Z,376.88
2019-04-27T07:06:53.255Z,371.25
2019-04-27T07:07:42.467Z,382.50
2019-04-27T07:08:41.465Z,393.75
2019-04-27T07:09:41.470Z,399.38
2019-04-27T07:10:41.454Z,399.38
2019-04-27T07:11:41.424Z,388.12
2019-04-27T07:12:41.480Z,382.50
2019-04-27T07:13:42.124Z,388.12
2019-04-27T07:14:52.223Z,382.50
2019-04-27T07:15:42.418Z,371.25
2019-04-27T07:16:41.398Z,354.38
2019-04-27T07:17:41.366Z,331.88
2019-04-27T07:18:41.412Z,309.38
2019-04-27T07:19:41.361Z,298.12
2019-04-27T07:20:41.345Z,309.38
2019-04-27T07:21:41.332Z,326.25
2019-04-27T07:22:41.327Z,354.38
2019-04-27T07:23:41.362Z,371.25
2019-04-27T07:24:41.323Z,388.12
2019-04-27T07:25:41.273Z,399.38
2019-04-27T07:26:41.291Z,405.00
2019-04-27T07:27:41.294Z,410.62
2019-04-27T07:28:41.254Z,421.88
2019-04-27T07:29:44.657Z,427.50
2019-04-27T07:30:41.266Z,438.75
2019-04-27T07:31:41.226Z,433.12
2019-04-27T07:32:41.207Z,427.50
2019-04-27T07:33:41.207Z,416.25
2019-04-27T07:34:41.241Z,410.62
2019-04-27T07:35:41.165Z,410.62
2019-04-27T07:36:41.191Z,405.00
2019-04-27T07:37:41.165Z,399.38
2019-04-27T07:38:41.142Z,388.12
2019-04-27T07:39:41.169Z,371.25
2019-04-27T07:40:42.021Z,360.00
2019-04-27T07:41:41.103Z,343.12
2019-04-27T07:42:41.419Z,320.62
2019-04-27T07:43:41.092Z,315.00
2019-04-27T07:44:41.102Z,303.75
2019-04-27T07:45:41.089Z,298.12
2019-04-27T07:46:41.084Z,286.88
2019-04-27T07:47:41.038Z,281.25
2019-04-27T07:48:41.031Z,270.00
2019-04-27T07:49:41.029Z,258.75
2019-04-27T07:50:41.055Z,253.12
2019-04-27T07:51:41.010Z,247.50
2019-04-27T07:52:40.986Z,247.50
2019-04-27T07:53:40.985Z,253.12
2019-04-27T07:54:41.149Z,264.38
2019-04-27T07:55:40.975Z,281.25
2019-04-27T07:56:40.944Z,298.12
2019-04-27T07:57:40.940Z,320.62
2019-04-27T07:58:40.916Z,343.12
2019-04-27T07:59:42.117Z,354.38
2019-04-27T08:00:40.928Z,371.25
2019-04-27T08:01:40.950Z,393.75
2019-04-27T08:02:40.878Z,421.88
2019-04-27T08:03:40.902Z,427.50
2019-04-27T08:04:40.905Z,438.75
2019-04-27T08:05:40.873Z,450.00
2019-04-27T08:06:40.831Z,466.88
2019-04-27T08:07:40.838Z,478.12
2019-04-27T08:08:40.815Z,483.75
2019-04-27T08:09:40.787Z,483.75
2019-04-27T08:10:40.808Z,483.75
2019-04-27T08:11:40.776Z,483.75
2019-04-27T08:12:40.777Z,483.75
2019-04-27T08:13:40.756Z,483.75
2019-04-27T08:14:40.749Z,478.12
2019-04-27T08:15:40.790Z,478.12
2019-04-27T08:16:40.716Z,478.12
2019-04-27T08:17:42.905Z,478.12
2019-04-27T08:18:40.713Z,483.75
2019-04-27T08:19:40.719Z,489.38
2019-04-27T08:20:40.722Z,489.38
2019-04-27T08:21:44.300Z,483.75
2019-04-27T08:22:41.659Z,478.12
2019-04-27T08:23:40.661Z,472.50
2019-04-27T08:24:40.629Z,472.50
2019-04-27T08:25:40.628Z,489.38
2019-04-27T08:26:40.656Z,506.25
2019-04-27T08:27:40.597Z,517.50
2019-04-27T08:28:40.591Z,534.38
2019-04-27T08:29:40.629Z,523.12
2019-04-27T08:30:40.583Z,528.75
2019-04-27T08:31:40.577Z,511.88
2019-04-27T08:32:41.551Z,511.88
2019-04-27T08:33:40.551Z,523.12
2019-04-27T08:34:40.539Z,517.50
2019-04-27T08:35:40.699Z,517.50
2019-04-27T08:36:40.523Z,556.88
2019-04-27T08:37:40.503Z,585.00
2019-04-27T08:38:40.488Z,613.12
2019-04-27T08:39:40.464Z,641.25
2019-04-27T08:40:40.489Z,646.88
2019-04-27T08:41:40.441Z,624.38
2019-04-27T08:42:40.479Z,624.38
2019-04-27T08:43:40.432Z,630.00
2019-04-27T08:44:40.428Z,590.62
2019-04-27T08:45:40.395Z,596.25
2019-04-27T08:46:40.393Z,601.88
2019-04-27T08:47:41.768Z,596.25
2019-04-27T08:48:40.384Z,590.62
2019-04-27T08:49:40.359Z,601.88
2019-04-27T08:50:42.112Z,607.50
2019-04-27T08:51:41.552Z,618.75
2019-04-27T08:52:41.888Z,613.12
2019-04-27T08:53:40.306Z,613.12
2019-04-27T08:54:40.298Z,607.50
2019-04-27T08:55:40.280Z,618.75
2019-04-27T08:56:40.272Z,630.00
2019-04-27T08:57:40.272Z,624.38
2019-04-27T08:58:40.282Z,613.12
2019-04-27T08:59:40.242Z,613.12
2019-04-27T09:00:40.226Z,613.12
2019-04-27T09:01:40.236Z,607.50
2019-04-27T09:02:46.779Z,618.75
2019-04-27T09:03:41.194Z,630.00
2019-04-27T09:04:40.185Z,641.25
2019-04-27T09:05:40.184Z,658.12
2019-04-27T09:06:40.206Z,675.00
2019-04-27T09:07:40.158Z,680.62
2019-04-27T09:08:41.343Z,680.62
2019-04-27T09:09:40.128Z,663.75
2019-04-27T09:10:40.120Z,646.88
2019-04-27T09:11:40.111Z,635.62
2019-04-27T09:12:41.507Z,630.00
2019-04-27T09:13:41.243Z,630.00
2019-04-27T09:14:40.818Z,652.50
2019-04-27T09:15:40.062Z,680.62
2019-04-27T09:16:40.101Z,708.75
2019-04-27T09:17:40.047Z,731.25
2019-04-27T09:18:41.081Z,748.12
2019-04-27T09:19:40.022Z,731.25
2019-04-27T09:20:40.028Z,720.00
2019-04-27T09:21:40.035Z,708.75
2019-04-27T09:22:40.000Z,703.12
2019-04-27T09:23:39.982Z,708.75
2019-04-27T09:24:40.007Z,708.75
2019-04-27T09:25:39.966Z,714.38
2019-04-27T09:26:39.961Z,708.75
2019-04-27T09:27:39.941Z,725.62
2019-04-27T09:28:39.929Z,708.75
2019-04-27T09:29:39.939Z,736.88
2019-04-27T09:30:39.916Z,748.12
2019-04-27T09:31:39.906Z,753.75
2019-04-27T09:32:40.801Z,742.50
2019-04-27T09:33:39.875Z,736.88
2019-04-27T09:34:39.893Z,725.62
2019-04-27T09:35:39.860Z,686.25
2019-04-27T09:36:39.901Z,646.88
2019-04-27T09:37:39.851Z,725.62
2019-04-27T09:38:39.816Z,686.25
2019-04-27T09:39:39.820Z,714.38
2019-04-27T09:40:39.797Z,720.00
2019-04-27T09:41:39.824Z,675.00
2019-04-27T09:42:39.779Z,658.12
2019-04-27T09:43:39.779Z,720.00
2019-04-27T09:44:39.762Z,703.12
2019-04-27T09:45:39.748Z,714.38
2019-04-27T09:46:39.768Z,720.00
2019-04-27T09:47:39.731Z,652.50
2019-04-27T09:48:39.717Z,720.00
2019-04-27T09:49:39.708Z,776.25
2019-04-27T09:50:39.724Z,770.62
2019-04-27T09:51:39.684Z,714.38
2019-04-27T09:52:39.683Z,736.88
2019-04-27T09:53:39.654Z,731.25
2019-04-27T09:54:39.654Z,776.25
2019-04-27T09:55:39.651Z,843.75
2019-04-27T09:56:39.666Z,821.25
2019-04-27T09:57:39.627Z,810.00
2019-04-27T09:58:39.624Z,804.38
2019-04-27T09:59:39.861Z,826.88
2019-04-27T10:00:39.587Z,815.62
2019-04-27T10:01:39.596Z,770.62
2019-04-27T10:02:39.578Z,742.50
2019-04-27T10:03:39.565Z,731.25
2019-04-27T10:04:39.549Z,748.12
2019-04-27T10:05:39.526Z,742.50
2019-04-27T10:06:39.533Z,703.12
2019-04-27T10:07:39.543Z,770.62
2019-04-27T10:08:39.503Z,826.88
2019-04-27T10:09:39.501Z,843.75
2019-04-27T10:10:39.474Z,860.62
2019-04-27T10:11:39.495Z,860.62
2019-04-27T10:12:39.466Z,860.62
2019-04-27T10:13:39.442Z,900.00
2019-04-27T10:14:39.443Z,905.62
2019-04-27T10:15:39.448Z,911.25
2019-04-27T10:16:39.407Z,928.12
2019-04-27T10:17:39.424Z,939.38
2019-04-27T10:18:39.377Z,956.25
2019-04-27T10:19:39.381Z,956.25
2019-04-27T10:20:41.072Z,945.00
2019-04-27T10:21:39.455Z,950.62
2019-04-27T10:22:42.843Z,961.88
2019-04-27T10:23:39.334Z,984.38
2019-04-27T10:24:39.317Z,1006.88
2019-04-27T10:25:39.315Z,1023.75
2019-04-27T10:26:39.306Z,1029.38
2019-04-27T10:27:39.339Z,1046.25
2019-04-27T10:28:39.294Z,1063.12
2019-04-27T10:29:39.280Z,1063.12
2019-04-27T10:30:39.278Z,1051.88
2019-04-27T10:31:39.253Z,1035.00
2019-04-27T10:32:39.279Z,1029.38
2019-04-27T10:33:39.278Z,1040.62
2019-04-27T10:34:39.217Z,1023.75
2019-04-27T10:35:39.223Z,1018.12
2019-04-27T10:36:39.202Z,1029.38
2019-04-27T10:37:39.200Z,1051.88
2019-04-27T10:38:39.208Z,1051.88
2019-04-27T10:39:39.158Z,1051.88
2019-04-27T10:40:39.153Z,1057.50
2019-04-27T10:41:39.136Z,1068.75
2019-04-27T10:42:39.162Z,1130.62
2019-04-27T10:43:39.149Z,1147.50
2019-04-27T10:44:39.102Z,1141.88
2019-04-27T10:45:39.096Z,1125.00
2019-04-27T10:46:39.112Z,1085.62
2019-04-27T10:47:39.098Z,1074.38
2019-04-27T10:48:39.070Z,1040.62
2019-04-27T10:49:39.047Z,1096.88
2019-04-27T10:50:39.038Z,1141.88
2019-04-27T10:51:39.037Z,1141.88
2019-04-27T10:52:39.046Z,1119.38
2019-04-27T10:53:39.115Z,1102.50
2019-04-27T10:54:39.002Z,1085.62
2019-04-27T10:55:39.023Z,1091.25
2019-04-27T10:56:38.976Z,1091.25
2019-04-27T10:57:39.017Z,1102.50
2019-04-27T10:58:38.968Z,1108.12
2019-04-27T10:59:38.953Z,1096.88
2019-04-27T11:01:40.113Z,1130.62
2019-04-27T11:02:38.908Z,1125.00
2019-04-27T11:03:38.914Z,1136.25
2019-04-27T11:04:38.887Z,1040.62
2019-04-27T11:05:38.882Z,1051.88
2019-04-27T11:06:38.877Z,1181.25
2019-04-27T11:07:38.860Z,1215.00
2019-04-27T11:09:40.018Z,1186.88
2019-04-27T11:10:38.996Z,1186.88
2019-04-27T11:11:38.994Z,1220.62
2019-04-27T11:12:38.969Z,1271.25
2019-04-27T11:13:39.078Z,1282.50
2019-04-27T11:14:38.950Z,1192.50
2019-04-27T11:15:38.789Z,1361.25
2019-04-27T11:16:38.769Z,1434.38
2019-04-27T11:17:38.763Z,1591.88
2019-04-27T11:18:38.753Z,1282.50
2019-04-27T11:19:38.757Z,1170.00
2019-04-27T11:20:38.738Z,1501.88
2019-04-27T11:21:38.715Z,1198.12
2019-04-27T11:22:38.703Z,1490.62
2019-04-27T11:23:38.717Z,1569.38
2019-04-27T11:24:38.699Z,1940.62
2019-04-27T11:25:38.661Z,2953.12
2019-04-27T11:26:38.661Z,2199.38
2019-04-27T11:27:38.673Z,3650.62
2019-04-27T11:28:38.632Z,4353.75
2019-04-27T11:29:38.653Z,2536.88
2019-04-27T11:30:38.635Z,3622.50
2019-04-27T11:31:38.603Z,3341.25
2019-04-27T11:32:38.708Z,2953.12
2019-04-27T11:33:38.590Z,3003.75
2019-04-27T11:34:38.610Z,2626.88
2019-04-27T11:35:38.566Z,2475.00
2019-04-27T11:36:38.561Z,2446.88
2019-04-27T11:37:38.577Z,1968.75
2019-04-27T11:38:38.534Z,804.38
2019-04-27T11:39:38.519Z,2407.50
2019-04-27T11:40:38.569Z,652.50
2019-04-27T11:41:38.510Z,916.88
2019-04-27T11:42:38.487Z,2199.38
2019-04-27T11:43:38.491Z,2002.50
2019-04-27T11:44:38.465Z,1260.00
2019-04-27T11:45:38.486Z,714.38
2019-04-27T11:46:38.446Z,708.75
2019-04-27T11:47:38.509Z,697.50
2019-04-27T11:48:38.429Z,652.50
2019-04-27T11:49:38.434Z,781.88
2019-04-27T11:50:38.427Z,860.62
2019-04-27T11:51:38.392Z,793.12
2019-04-27T11:52:38.412Z,1524.38
2019-04-27T11:53:38.390Z,742.50
2019-04-27T11:54:38.424Z,680.62
2019-04-27T11:55:38.364Z,742.50
2019-04-27T11:56:38.339Z,826.88
2019-04-27T11:57:38.344Z,776.25
2019-04-27T11:58:38.349Z,770.62
2019-04-27T11:59:38.348Z,945.00
2019-04-27T12:00:38.314Z,894.38
2019-04-27T12:01:38.308Z,2103.75
2019-04-27T12:02:38.321Z,905.62
2019-04-27T12:03:38.285Z,793.12
2019-04-27T12:04:39.229Z,742.50
2019-04-27T12:05:38.267Z,1603.12
2019-04-27T12:06:38.256Z,950.62
2019-04-27T12:07:38.376Z,894.38
2019-04-27T12:08:38.249Z,1552.50
2019-04-27T12:09:38.250Z,1698.75
2019-04-27T12:10:38.202Z,3206.25
2019-04-27T12:11:38.326Z,2621.25
2019-04-27T12:12:38.216Z,4246.88
2019-04-27T12:13:38.190Z,3695.62
2019-04-27T12:14:38.193Z,905.62
2019-04-27T12:15:38.137Z,753.75
2019-04-27T12:16:38.206Z,759.38
2019-04-27T12:17:38.157Z,1642.50
2019-04-27T12:18:38.160Z,697.50
2019-04-27T12:19:38.093Z,635.62
2019-04-27T12:20:38.102Z,646.88
2019-04-27T12:21:38.088Z,697.50
2019-04-27T12:22:38.867Z,1293.75
2019-04-27T12:23:41.238Z,1434.38
2019-04-27T12:24:38.051Z,1434.38
2019-04-27T12:25:38.087Z,1366.88
2019-04-27T12:26:38.026Z,1400.62
2019-04-27T12:27:38.054Z,1428.75
2019-04-27T12:28:38.055Z,950.62
2019-04-27T12:29:38.020Z,916.88
2019-04-27T12:30:38.006Z,736.88
2019-04-27T12:31:37.962Z,652.50
2019-04-27T12:32:37.953Z,607.50
2019-04-27T12:33:37.969Z,1063.12
2019-04-27T12:34:37.946Z,742.50
2019-04-27T12:35:37.998Z,697.50
2019-04-27T12:36:37.938Z,663.75
2019-04-27T12:37:37.947Z,590.62
2019-04-27T12:38:38.365Z,517.50
2019-04-27T12:39:37.884Z,483.75
2019-04-27T12:40:37.898Z,472.50
2019-04-27T12:41:37.881Z,540.00
2019-04-27T12:42:38.010Z,573.75
2019-04-27T12:43:37.855Z,652.50
2019-04-27T12:44:42.227Z,736.88
2019-04-27T12:45:40.406Z,759.38